createdAt,value
2019-02-15T00:00:34.773Z,27.97
2019-02-15T00:03:02.659Z,24.03
2019-02-15T00:05:29.833Z,25.07
2019-02-15T00:07:57.116Z,26.50
2019-02-15T00:10:24.332Z,27.17
2019-02-15T00:12:52.209Z,27.63
2019-02-15T00:15:19.728Z,23.77
2019-02-15T00:18:09.266Z,29.20
2019-02-15T00:20:41.311Z,27.13
2019-02-15T00:23:08.650Z,29.50
2019-02-15T00:25:36.190Z,29.97
2019-02-15T00:28:03.584Z,24.97
2019-02-15T00:30:30.812Z,24.07
2019-02-15T00:32:58.101Z,22.40
2019-02-15T00:35:25.491Z,25.43
2019-02-15T00:37:52.867Z,25.17
2019-02-15T00:40:20.226Z,18.53
2019-02-15T00:42:47.654Z,18.40
2019-02-15T00:45:19.797Z,19.50
2019-02-15T00:47:53.003Z,24.77
2019-02-15T00:50:38.630Z,22.33
2019-02-15T00:53:18.947Z,17.47
2019-02-15T00:56:04.378Z,16.83
2019-02-15T00:58:51.257Z,17.73
2019-02-15T01:01:43.892Z,20.80
2019-02-15T01:04:30.701Z,19.97
2019-02-15T01:07:12.507Z,18.13
2019-02-15T01:09:55.838Z,18.40
2019-02-15T01:12:30.973Z,15.57
2019-02-15T01:14:58.661Z,14.37
2019-02-15T01:17:25.771Z,13.03
2019-02-15T01:19:53.338Z,17.37
2019-02-15T01:22:20.663Z,16.03
2019-02-15T01:24:47.966Z,17.27
2019-02-15T01:27:33.763Z,20.23
2019-02-15T01:30:20.587Z,17.63
2019-02-15T01:32:58.723Z,15.57
2019-02-15T01:35:44.010Z,16.23
2019-02-15T01:38:20.359Z,16.03
2019-02-15T01:41:19.152Z,16.87
2019-02-15T01:43:56.839Z,19.23
2019-02-15T01:46:38.126Z,14.63
2019-02-15T01:49:05.710Z,18.00
2019-02-15T01:51:32.990Z,20.00
2019-02-15T01:54:00.206Z,17.80
2019-02-15T01:56:27.526Z,16.17
2019-02-15T01:58:55.098Z,13.67
2019-02-15T02:01:24.493Z,15.17
2019-02-15T02:03:51.544Z,14.70
2019-02-15T02:06:18.737Z,13.73
2019-02-15T02:08:45.948Z,12.13
2019-02-15T02:11:13.310Z,16.13
2019-02-15T02:13:49.285Z,12.73
2019-02-15T02:16:10.038Z,13.73
2019-02-15T02:18:37.335Z,13.33
2019-02-15T02:21:04.563Z,12.90
2019-02-15T02:23:31.727Z,15.43
2019-02-15T02:25:58.975Z,16.50
2019-02-15T02:28:26.582Z,14.60
2019-02-15T02:30:53.744Z,15.33
2019-02-15T02:33:22.155Z,19.93
2019-02-15T02:35:49.751Z,13.73
2019-02-15T02:38:17.050Z,14.50
2019-02-15T02:40:44.314Z,18.70
2019-02-15T02:43:11.513Z,18.03
2019-02-15T02:45:38.811Z,22.37
2019-02-15T02:48:06.047Z,15.97
2019-02-15T02:50:33.213Z,15.73
2019-02-15T02:53:00.640Z,18.47
2019-02-15T02:55:27.973Z,22.33
2019-02-15T02:57:55.405Z,19.43
2019-02-15T03:00:22.466Z,15.23
2019-02-15T03:02:49.804Z,17.20
2019-02-15T03:05:16.903Z,15.80
2019-02-15T03:07:44.130Z,16.40
2019-02-15T03:10:11.418Z,13.50
2019-02-15T03:12:38.611Z,15.53
2019-02-15T03:15:06.345Z,18.60
2019-02-15T03:17:34.203Z,15.80
2019-02-15T03:20:01.492Z,20.67
2019-02-15T03:22:28.890Z,18.43
2019-02-15T03:24:56.091Z,17.27
2019-02-15T03:27:23.315Z,20.40
2019-02-15T03:29:50.713Z,16.33
2019-02-15T03:32:17.917Z,15.73
2019-02-15T03:34:45.279Z,15.13
2019-02-15T03:37:30.462Z,15.03
2019-02-15T03:40:02.556Z,17.37
2019-02-15T03:42:30.019Z,18.93
2019-02-15T03:44:57.329Z,21.50
2019-02-15T03:47:26.982Z,21.63
2019-02-15T03:49:54.243Z,19.10
2019-02-15T03:52:21.633Z,24.27
2019-02-15T03:54:48.989Z,21.53
2019-02-15T03:57:16.185Z,15.80
2019-02-15T03:59:43.357Z,16.30
2019-02-15T04:02:10.575Z,18.40
2019-02-15T04:04:37.919Z,19.23
2019-02-15T04:07:05.164Z,19.13
2019-02-15T04:09:32.619Z,18.03
2019-02-15T04:11:59.948Z,19.00
2019-02-15T04:14:32.913Z,16.77
2019-02-15T04:16:56.218Z,18.60
2019-02-15T04:19:23.468Z,16.63
2019-02-15T04:21:50.438Z,16.07
2019-02-15T04:24:19.190Z,14.03
2019-02-15T04:26:46.440Z,15.93
2019-02-15T04:29:13.665Z,15.90
2019-02-15T04:31:40.761Z,15.63
2019-02-15T04:34:08.032Z,15.40
2019-02-15T04:36:35.533Z,20.17
2019-02-15T04:39:04.409Z,20.13
2019-02-15T04:41:33.014Z,17.80
2019-02-15T04:44:00.108Z,23.83
2019-02-15T04:46:27.421Z,23.10
2019-02-15T04:48:54.618Z,22.40
2019-02-15T04:51:21.987Z,18.90
2019-02-15T04:53:49.100Z,17.43
2019-02-15T04:56:16.446Z,24.27
2019-02-15T04:58:43.700Z,19.87
2019-02-15T05:01:10.943Z,17.90
2019-02-15T05:03:38.032Z,19.43
2019-02-15T05:06:05.403Z,17.60
2019-02-15T05:08:32.484Z,22.63
2019-02-15T05:10:59.844Z,19.53
2019-02-15T05:13:27.234Z,20.07
2019-02-15T05:15:54.687Z,16.90
2019-02-15T05:18:22.024Z,14.93
2019-02-15T05:20:49.464Z,22.57
2019-02-15T05:23:17.270Z,17.93
2019-02-15T05:25:44.392Z,18.13
2019-02-15T05:28:11.621Z,16.37
2019-02-15T05:30:38.854Z,17.57
2019-02-15T05:33:06.053Z,17.07
2019-02-15T05:35:34.442Z,16.77
2019-02-15T05:38:01.786Z,18.53
2019-02-15T05:40:28.994Z,17.23
2019-02-15T05:42:56.247Z,31.23
2019-02-15T05:45:23.481Z,16.70
2019-02-15T05:47:50.864Z,19.33
2019-02-15T05:50:18.212Z,20.10
2019-02-15T05:52:45.488Z,30.97
2019-02-15T05:55:12.683Z,23.23
2019-02-15T05:57:39.886Z,19.73
2019-02-15T06:00:08.050Z,25.30
2019-02-15T06:02:35.362Z,25.90
2019-02-15T06:05:02.576Z,22.23
2019-02-15T06:07:29.701Z,22.17
2019-02-15T06:09:57.246Z,20.27
2019-02-15T06:12:25.748Z,20.40
2019-02-15T06:14:53.204Z,17.63
2019-02-15T06:17:20.579Z,20.37
2019-02-15T06:19:48.073Z,18.63
2019-02-15T06:22:15.540Z,19.13
2019-02-15T06:24:42.898Z,19.73
2019-02-15T06:27:10.078Z,19.97
2019-02-15T06:29:37.778Z,20.63
2019-02-15T06:32:04.840Z,21.83
2019-02-15T06:34:32.504Z,19.50
2019-02-15T06:36:59.863Z,21.93
2019-02-15T06:39:26.947Z,20.07
2019-02-15T06:41:54.321Z,23.50
2019-02-15T06:44:21.927Z,22.60
2019-02-15T06:46:49.182Z,22.27
2019-02-15T06:49:16.619Z,21.40
2019-02-15T06:51:43.984Z,19.70
2019-02-15T06:54:11.373Z,16.67
2019-02-15T06:56:38.453Z,20.33
2019-02-15T06:59:33.027Z,28.93
2019-02-15T07:02:15.022Z,36.43
2019-02-15T07:05:13.980Z,28.00
2019-02-15T07:07:41.298Z,24.73
2019-02-15T07:10:08.541Z,25.80
2019-02-15T07:12:35.946Z,20.73
2019-02-15T07:15:03.533Z,24.23
2019-02-15T07:17:31.999Z,19.97
2019-02-15T07:19:59.224Z,27.73
2019-02-15T07:22:26.555Z,22.07
2019-02-15T07:24:53.746Z,26.57
2019-02-15T07:27:21.087Z,25.33
2019-02-15T07:29:48.430Z,28.70
2019-02-15T07:32:15.504Z,29.90
2019-02-15T07:34:42.747Z,31.67
2019-02-15T07:37:10.260Z,31.77
2019-02-15T07:39:37.581Z,37.47
2019-02-15T07:42:04.811Z,48.57
2019-02-15T07:44:32.729Z,39.57
2019-02-15T07:47:00.000Z,48.20
2019-02-15T07:49:27.410Z,52.03
2019-02-15T07:51:54.699Z,51.00
2019-02-15T07:54:22.386Z,60.37
2019-02-15T07:56:49.685Z,57.53
2019-02-15T07:59:16.758Z,46.00
2019-02-15T08:01:44.022Z,43.80
2019-02-15T08:04:11.596Z,43.97
2019-02-15T08:06:39.166Z,40.43
2019-02-15T08:09:10.651Z,33.20
2019-02-15T08:11:38.080Z,33.23
2019-02-15T08:14:14.312Z,33.70
2019-02-15T08:16:34.719Z,28.80
2019-02-15T08:19:02.095Z,40.40
2019-02-15T08:21:29.319Z,36.23
2019-02-15T08:23:57.020Z,32.20
2019-02-15T08:26:24.348Z,32.47
2019-02-15T08:28:51.526Z,30.97
2019-02-15T08:31:19.849Z,24.57
2019-02-15T08:33:47.434Z,26.27
2019-02-15T08:36:14.660Z,26.17
2019-02-15T08:38:42.066Z,24.10
2019-02-15T08:41:09.268Z,24.43
2019-02-15T08:43:37.554Z,25.27
2019-02-15T08:46:05.031Z,28.77
2019-02-15T08:48:32.288Z,31.93
2019-02-15T08:50:59.538Z,27.30
2019-02-15T08:53:27.094Z,31.30
2019-02-15T08:55:54.319Z,31.83
2019-02-15T08:58:21.685Z,27.60
2019-02-15T09:00:48.891Z,28.37
2019-02-15T09:03:16.233Z,28.63
2019-02-15T09:05:43.700Z,23.40
2019-02-15T09:08:10.792Z,25.20
2019-02-15T09:10:38.469Z,25.70
2019-02-15T09:13:05.744Z,32.30
2019-02-15T09:15:33.136Z,25.40
2019-02-15T09:18:00.417Z,22.37
2019-02-15T09:20:27.736Z,26.90
2019-02-15T09:22:55.249Z,23.77
2019-02-15T09:25:22.627Z,26.40
2019-02-15T09:28:15.290Z,32.80
2019-02-15T09:30:44.292Z,26.50
2019-02-15T09:33:11.694Z,29.57
2019-02-15T09:35:39.063Z,24.53
2019-02-15T09:38:06.434Z,41.97
2019-02-15T09:40:33.656Z,30.23
2019-02-15T09:43:00.901Z,30.60
2019-02-15T09:45:28.211Z,27.87
2019-02-15T09:47:55.482Z,28.67
2019-02-15T09:50:22.699Z,33.33
2019-02-15T09:52:50.050Z,29.07
2019-02-15T09:55:17.505Z,24.73
2019-02-15T09:57:44.858Z,22.97
2019-02-15T10:00:12.173Z,21.20
2019-02-15T10:02:39.508Z,24.03
2019-02-15T10:05:06.783Z,13.27
2019-02-15T10:07:34.183Z,11.20
2019-02-15T10:10:01.550Z,12.60
2019-02-15T10:12:28.751Z,13.37
2019-02-15T10:14:55.766Z,12.07
2019-02-15T10:17:22.937Z,15.23
2019-02-15T10:19:50.286Z,11.23
2019-02-15T10:22:17.651Z,12.00
2019-02-15T10:24:45.085Z,15.90
2019-02-15T10:27:12.395Z,8.67
2019-02-15T10:29:39.677Z,12.03
2019-02-15T10:32:06.871Z,10.13
2019-02-15T10:34:34.554Z,9.07
2019-02-15T10:37:01.909Z,10.47
2019-02-15T10:39:29.257Z,7.73
2019-02-15T10:41:56.615Z,4.60
2019-02-15T10:44:23.949Z,7.87
2019-02-15T10:46:51.347Z,7.40
2019-02-15T10:49:19.093Z,5.90
2019-02-15T10:51:46.492Z,3.13
2019-02-15T10:54:13.741Z,4.10
2019-02-15T10:56:41.362Z,4.47
2019-02-15T10:59:08.857Z,4.57
2019-02-15T11:01:36.225Z,8.10
2019-02-15T11:04:03.530Z,2.17
2019-02-15T11:06:32.321Z,8.30
2019-02-15T11:08:59.693Z,4.77
2019-02-15T11:11:26.871Z,5.20
2019-02-15T11:13:54.119Z,5.47
2019-02-15T11:16:21.329Z,7.87
2019-02-15T11:18:48.422Z,5.00
2019-02-15T11:21:15.800Z,3.80
2019-02-15T11:23:43.477Z,4.77
2019-02-15T11:26:10.775Z,6.00
2019-02-15T11:28:37.945Z,4.17
2019-02-15T11:31:05.197Z,7.10
2019-02-15T11:33:32.351Z,7.50
2019-02-15T11:35:59.860Z,5.50
2019-02-15T11:38:27.077Z,5.40
2019-02-15T11:40:54.295Z,4.87
2019-02-15T11:43:21.663Z,7.77
2019-02-15T11:45:49.230Z,5.23
2019-02-15T11:48:16.887Z,5.83
2019-02-15T11:50:44.093Z,7.40
2019-02-15T11:53:11.490Z,7.43
2019-02-15T11:55:38.774Z,7.80
2019-02-15T11:58:06.494Z,3.53
2019-02-15T12:00:34.875Z,4.47
2019-02-15T12:03:02.093Z,2.00
2019-02-15T12:05:29.358Z,6.23
2019-02-15T12:07:56.580Z,6.77
2019-02-15T12:10:23.930Z,5.17
2019-02-15T12:12:51.488Z,4.43
2019-02-15T12:15:18.845Z,4.37
2019-02-15T12:17:46.145Z,4.87
2019-02-15T12:20:13.590Z,5.60
2019-02-15T12:22:40.968Z,5.27
2019-02-15T12:25:08.277Z,5.83
2019-02-15T12:27:35.506Z,4.17
2019-02-15T12:30:03.068Z,3.50
2019-02-15T12:32:30.357Z,3.07
2019-02-15T12:34:58.289Z,3.50
2019-02-15T12:37:25.662Z,6.60
2019-02-15T12:39:52.883Z,3.77
2019-02-15T12:42:20.123Z,3.70
2019-02-15T12:44:48.081Z,2.47
2019-02-15T12:47:15.708Z,3.90
2019-02-15T12:49:43.038Z,3.97
2019-02-15T12:52:10.472Z,3.40
2019-02-15T12:54:37.803Z,6.63
2019-02-15T12:57:05.205Z,2.87
2019-02-15T12:59:32.691Z,3.93
2019-02-15T13:02:00.095Z,3.13
2019-02-15T13:04:27.347Z,4.83
2019-02-15T13:06:54.576Z,4.80
2019-02-15T13:09:21.851Z,2.97
2019-02-15T13:11:48.803Z,4.47
2019-02-15T13:14:15.954Z,3.83
2019-02-15T13:16:43.168Z,2.70
2019-02-15T13:19:10.505Z,3.27
2019-02-15T13:21:37.682Z,3.07
2019-02-15T13:24:04.800Z,2.37
2019-02-15T13:26:32.270Z,2.80
2019-02-15T13:29:00.089Z,4.47
2019-02-15T13:31:27.384Z,2.87
2019-02-15T13:33:54.614Z,2.87
2019-02-15T13:36:21.714Z,1.90
2019-02-15T13:38:48.887Z,2.73
2019-02-15T13:41:16.209Z,1.73
2019-02-15T13:43:43.498Z,2.20
2019-02-15T13:46:10.831Z,1.97
2019-02-15T13:48:38.040Z,1.40
2019-02-15T13:51:05.397Z,3.60
2019-02-15T13:53:32.769Z,3.17
2019-02-15T13:56:00.194Z,3.77
2019-02-15T13:58:27.457Z,2.67
2019-02-15T14:00:54.554Z,2.73
2019-02-15T14:03:21.760Z,6.00
2019-02-15T14:05:48.963Z,4.00
2019-02-15T14:08:16.334Z,2.60
2019-02-15T14:10:43.430Z,5.13
2019-02-15T14:13:11.282Z,2.80
2019-02-15T14:15:38.545Z,1.97
2019-02-15T14:18:05.800Z,4.33
2019-02-15T14:20:33.156Z,4.37
2019-02-15T14:23:00.385Z,4.60
2019-02-15T14:25:27.597Z,3.07
2019-02-15T14:27:54.850Z,2.63
2019-02-15T14:30:22.128Z,2.77
2019-02-15T14:32:49.412Z,3.37
2019-02-15T14:35:16.718Z,4.70
2019-02-15T14:37:43.967Z,2.03
2019-02-15T14:40:11.871Z,4.50
2019-02-15T14:42:39.219Z,4.43
2019-02-15T14:45:07.155Z,3.70
2019-02-15T14:47:35.793Z,4.90
2019-02-15T14:50:03.193Z,2.73
2019-02-15T14:52:30.654Z,2.63
2019-02-15T14:54:58.013Z,4.50
2019-02-15T14:57:25.403Z,5.10
2019-02-15T14:59:53.804Z,5.27
2019-02-15T15:02:21.077Z,4.43
2019-02-15T15:04:48.483Z,3.90
2019-02-15T15:07:16.165Z,6.07
2019-02-15T15:09:43.468Z,2.53
2019-02-15T15:12:10.704Z,3.87
2019-02-15T15:14:38.317Z,2.37
2019-02-15T15:17:05.662Z,1.80
2019-02-15T15:19:32.809Z,2.67
2019-02-15T15:22:00.054Z,3.43
2019-02-15T15:24:28.474Z,1.40
2019-02-15T15:26:56.130Z,2.20
2019-02-15T15:29:23.308Z,4.17
2019-02-15T15:31:50.582Z,3.13
2019-02-15T15:34:18.040Z,2.87
2019-02-15T15:36:45.312Z,1.93
2019-02-15T15:39:12.592Z,2.13
2019-02-15T15:41:40.079Z,2.47
2019-02-15T15:44:07.603Z,2.20
2019-02-15T15:46:35.071Z,6.70
2019-02-15T15:49:02.296Z,2.67
2019-02-15T15:51:30.108Z,3.27
2019-02-15T15:53:57.383Z,2.37
2019-02-15T15:56:24.596Z,1.33
2019-02-15T15:58:51.975Z,3.37
2019-02-15T16:01:19.257Z,2.17
2019-02-15T16:03:46.653Z,2.97
2019-02-15T16:06:23.881Z,5.00
2019-02-15T16:08:43.505Z,2.90
2019-02-15T16:11:11.925Z,1.97
2019-02-15T16:13:39.308Z,2.50
2019-02-15T16:16:06.648Z,3.87
2019-02-15T16:18:35.130Z,5.20
2019-02-15T16:21:02.311Z,2.97
2019-02-15T16:23:29.662Z,3.00
2019-02-15T16:25:57.940Z,3.60
2019-02-15T16:28:25.244Z,1.80
2019-02-15T16:30:52.668Z,2.50
2019-02-15T16:33:20.024Z,2.30
2019-02-15T16:35:47.488Z,2.97
2019-02-15T16:38:14.707Z,3.53
2019-02-15T16:40:41.952Z,3.77
2019-02-15T16:43:09.156Z,5.90
2019-02-15T16:45:36.559Z,5.13
2019-02-15T16:48:03.765Z,3.73
2019-02-15T16:50:31.005Z,4.57
2019-02-15T16:52:58.339Z,7.23
2019-02-15T16:55:25.769Z,6.43
2019-02-15T16:57:53.129Z,7.97
2019-02-15T17:00:20.490Z,10.30
2019-02-15T17:02:47.957Z,8.97
2019-02-15T17:05:15.310Z,10.63
2019-02-15T17:07:42.629Z,12.83
2019-02-15T17:10:10.151Z,9.67
2019-02-15T17:12:37.566Z,11.37
2019-02-15T17:15:05.305Z,9.90
2019-02-15T17:17:32.707Z,7.77
2019-02-15T17:19:59.935Z,9.57
2019-02-15T17:22:27.285Z,13.03
2019-02-15T17:24:55.623Z,6.77
2019-02-15T17:27:22.978Z,11.00
2019-02-15T17:29:50.210Z,19.97
2019-02-15T17:32:17.573Z,31.53
2019-02-15T17:34:44.902Z,30.30
2019-02-15T17:37:12.114Z,21.43
2019-02-15T17:39:40.491Z,17.30
2019-02-15T17:42:07.802Z,19.17
2019-02-15T17:44:35.196Z,17.87
2019-02-15T17:47:02.443Z,17.70
2019-02-15T17:49:29.781Z,13.93
2019-02-15T17:51:57.062Z,11.33
2019-02-15T17:54:24.448Z,13.03
2019-02-15T17:56:51.604Z,17.03
2019-02-15T17:59:18.849Z,19.13
2019-02-15T18:01:46.368Z,15.53
2019-02-15T18:04:13.745Z,14.83
2019-02-15T18:06:41.085Z,12.87
2019-02-15T18:09:09.409Z,15.07
2019-02-15T18:11:36.886Z,36.70
2019-02-15T18:14:04.110Z,35.57
2019-02-15T18:16:31.368Z,34.27
2019-02-15T18:18:58.633Z,73.67
2019-02-15T18:21:26.005Z,70.97
2019-02-15T18:23:53.193Z,53.77
2019-02-15T18:26:20.539Z,41.23
2019-02-15T18:28:47.934Z,51.37
2019-02-15T18:31:16.499Z,35.03
2019-02-15T18:33:44.117Z,25.83
2019-02-15T18:36:11.258Z,22.87
2019-02-15T18:38:40.602Z,12.43
2019-02-15T18:41:13.630Z,15.20
2019-02-15T18:43:37.013Z,15.70
2019-02-15T18:46:04.091Z,13.47
2019-02-15T18:48:31.435Z,9.93
2019-02-15T18:50:59.048Z,18.00
2019-02-15T18:53:26.299Z,11.67
2019-02-15T18:55:54.206Z,14.00
2019-02-15T18:58:21.445Z,15.07
2019-02-15T19:00:48.754Z,8.53
2019-02-15T19:03:16.133Z,9.37
2019-02-15T19:05:43.386Z,15.67
2019-02-15T19:08:11.073Z,38.27
2019-02-15T19:10:38.308Z,30.73
2019-02-15T19:13:05.787Z,29.63
2019-02-15T19:15:32.936Z,22.67
2019-02-15T19:18:00.315Z,15.70
2019-02-15T19:20:27.943Z,17.00
2019-02-15T19:22:55.295Z,14.87
2019-02-15T19:25:22.376Z,15.20
2019-02-15T19:27:50.758Z,15.87
2019-02-15T19:30:20.380Z,11.50
2019-02-15T19:32:47.769Z,7.63
2019-02-15T19:35:14.874Z,11.20
2019-02-15T19:37:42.333Z,9.53
2019-02-15T19:40:10.529Z,7.87
2019-02-15T19:42:38.698Z,9.50
2019-02-15T19:45:07.706Z,9.73
2019-02-15T19:47:34.961Z,10.90
2019-02-15T19:50:02.303Z,11.40
2019-02-15T19:52:30.809Z,11.97
2019-02-15T19:54:58.416Z,11.60
2019-02-15T19:57:25.809Z,10.93
2019-02-15T19:59:56.279Z,10.20
2019-02-15T20:02:23.614Z,10.07
2019-02-15T20:04:50.847Z,12.90
2019-02-15T20:07:18.140Z,11.77
2019-02-15T20:09:45.732Z,9.23
2019-02-15T20:12:13.207Z,16.23
2019-02-15T20:14:40.580Z,17.43
2019-02-15T20:17:07.778Z,15.03
2019-02-15T20:19:35.224Z,15.00
2019-02-15T20:22:02.508Z,19.37
2019-02-15T20:24:30.105Z,11.53
2019-02-15T20:26:57.282Z,13.20
2019-02-15T20:29:24.398Z,12.33
2019-02-15T20:31:51.667Z,15.20
2019-02-15T20:34:19.033Z,14.23
2019-02-15T20:36:46.137Z,15.50
2019-02-15T20:39:13.631Z,12.47
2019-02-15T20:41:41.018Z,11.27
2019-02-15T20:44:08.393Z,11.80
2019-02-15T20:46:35.775Z,12.83
2019-02-15T20:49:04.925Z,10.73
2019-02-15T20:51:32.214Z,11.10
2019-02-15T20:53:59.568Z,16.47
2019-02-15T20:56:27.182Z,14.87
2019-02-15T20:58:54.970Z,22.67
2019-02-15T21:01:22.238Z,23.60
2019-02-15T21:03:49.631Z,23.90
2019-02-15T21:06:17.079Z,21.90
2019-02-15T21:08:44.458Z,19.10
2019-02-15T21:11:11.771Z,24.83
2019-02-15T21:13:39.102Z,21.47
2019-02-15T21:16:06.502Z,17.30
2019-02-15T21:18:33.587Z,17.93
2019-02-15T21:21:00.676Z,20.23
2019-02-15T21:23:27.791Z,14.20
2019-02-15T21:25:54.995Z,13.57
2019-02-15T21:28:22.856Z,20.67
2019-02-15T21:30:50.088Z,19.47
2019-02-15T21:33:17.515Z,13.80
2019-02-15T21:35:44.721Z,17.87
2019-02-15T21:38:12.197Z,13.47
2019-02-15T21:40:39.390Z,15.37
2019-02-15T21:43:07.066Z,14.43
2019-02-15T21:45:34.415Z,18.77
2019-02-15T21:48:01.784Z,16.50
2019-02-15T21:50:29.050Z,14.50
2019-02-15T21:52:56.317Z,14.90
2019-02-15T21:55:23.666Z,14.03
2019-02-15T21:57:50.802Z,13.43
2019-02-15T22:00:19.351Z,16.23
2019-02-15T22:02:46.915Z,24.80
2019-02-15T22:05:15.267Z,12.23
2019-02-15T22:07:43.037Z,20.13
2019-02-15T22:10:10.412Z,13.37
2019-02-15T22:12:37.801Z,15.90
2019-02-15T22:15:06.219Z,14.60
2019-02-15T22:17:33.353Z,21.63
2019-02-15T22:20:00.560Z,18.23
2019-02-15T22:22:28.009Z,17.43
2019-02-15T22:24:55.510Z,21.47
2019-02-15T22:27:22.842Z,26.40
2019-02-15T22:29:50.410Z,24.63
2019-02-15T22:32:17.591Z,21.00
2019-02-15T22:34:44.865Z,25.17
2019-02-15T22:37:12.179Z,26.10
2019-02-15T22:39:39.555Z,26.30
2019-02-15T22:42:06.754Z,23.57
2019-02-15T22:44:34.164Z,30.80
2019-02-15T22:47:01.471Z,25.77
2019-02-15T22:49:28.675Z,33.90
2019-02-15T22:51:56.120Z,30.53
2019-02-15T22:54:23.580Z,31.53
2019-02-15T22:56:50.760Z,36.00
2019-02-15T22:59:17.993Z,28.17
2019-02-15T23:01:45.356Z,42.53
2019-02-15T23:04:12.550Z,33.43
2019-02-15T23:06:39.887Z,34.97
2019-02-15T23:09:18.123Z,26.00
2019-02-15T23:11:45.782Z,23.37
2019-02-15T23:14:12.886Z,26.80
2019-02-15T23:16:41.874Z,21.43
2019-02-15T23:19:09.266Z,22.63
2019-02-15T23:21:37.346Z,22.47
2019-02-15T23:24:04.701Z,14.20
2019-02-15T23:26:31.820Z,16.83
2019-02-15T23:28:59.295Z,15.73
2019-02-15T23:31:26.554Z,17.30
2019-02-15T23:33:53.676Z,14.67
2019-02-15T23:36:21.026Z,17.43
2019-02-15T23:38:48.391Z,15.30
2019-02-15T23:41:15.702Z,16.47
2019-02-15T23:43:43.075Z,14.67
2019-02-15T23:46:10.286Z,12.30
2019-02-15T23:48:37.659Z,18.83
2019-02-15T23:51:04.899Z,17.73
2019-02-15T23:53:32.857Z,20.57
2019-02-15T23:56:00.251Z,18.03
2019-02-15T23:58:27.391Z,19.13
